createdAt,value
2023-04-25T00:02:16.159Z,99.90
2023-04-25T00:04:43.678Z,99.90
2023-04-25T00:07:11.512Z,99.90
2023-04-25T00:09:38.371Z,99.90
2023-04-25T00:12:05.994Z,99.90
2023-04-25T00:14:35.088Z,99.90
2023-04-25T00:17:02.072Z,99.90
2023-04-25T00:19:29.432Z,99.90
2023-04-25T00:21:56.632Z,99.90
2023-04-25T00:24:23.316Z,99.90
2023-04-25T00:26:50.260Z,99.90
2023-04-25T00:29:16.956Z,99.90
2023-04-25T00:31:43.760Z,99.90
2023-04-25T00:34:10.591Z,99.90
2023-04-25T00:36:37.308Z,99.90
2023-04-25T00:39:05.566Z,99.90
2023-04-25T00:41:32.401Z,99.90
2023-04-25T00:44:00.313Z,99.90
2023-04-25T00:46:27.050Z,99.90
2023-04-25T00:51:22.126Z,99.90
2023-04-25T00:53:51.174Z,99.90
2023-04-25T00:56:18.786Z,99.90
2023-04-25T00:58:45.774Z,99.90
2023-04-25T01:01:13.691Z,99.90
2023-04-25T01:03:44.472Z,99.90
2023-04-25T01:06:11.954Z,99.90
2023-04-25T01:08:40.187Z,99.90
2023-04-25T01:11:07.456Z,99.90
2023-04-25T01:13:34.588Z,99.90
2023-04-25T01:16:02.742Z,99.90
2023-04-25T01:18:29.644Z,99.90
2023-04-25T01:20:56.805Z,99.90
2023-04-25T01:23:24.130Z,99.90
2023-04-25T01:25:51.660Z,99.90
2023-04-25T01:28:19.102Z,99.90
2023-04-25T01:30:46.098Z,99.90
2023-04-25T01:33:14.614Z,99.90
2023-04-25T01:35:41.400Z,99.90
2023-04-25T01:38:08.197Z,99.90
2023-04-25T01:40:39.578Z,99.90
2023-04-25T01:43:06.487Z,99.90
2023-04-25T01:45:34.110Z,99.90
2023-04-25T01:48:01.331Z,99.90
2023-04-25T01:52:56.022Z,99.90
2023-04-25T01:55:22.799Z,99.90
2023-04-25T02:00:16.900Z,99.90
2023-04-25T02:02:43.675Z,99.90
2023-04-25T02:05:10.722Z,99.90
2023-04-25T02:07:37.526Z,99.90
2023-04-25T02:10:04.764Z,99.90
2023-04-25T02:12:32.912Z,99.90
2023-04-25T02:14:59.689Z,99.90
2023-04-25T02:17:27.368Z,99.90
2023-04-25T02:22:21.303Z,99.90
2023-04-25T02:24:48.073Z,99.90
2023-04-25T02:27:14.834Z,99.90
2023-04-25T02:29:41.585Z,99.90
2023-04-25T02:34:35.661Z,99.90
2023-04-25T02:37:02.433Z,99.90
2023-04-25T02:39:29.318Z,99.90
2023-04-25T02:41:56.004Z,99.90
2023-04-25T02:46:50.104Z,99.90
2023-04-25T02:49:16.922Z,99.90
2023-04-25T02:51:43.682Z,99.90
2023-04-25T02:54:10.926Z,99.90
2023-04-25T02:56:37.739Z,99.90
2023-04-25T02:59:04.449Z,99.90
2023-04-25T03:01:31.203Z,99.90
2023-04-25T03:03:57.962Z,99.90
2023-04-25T03:08:51.805Z,99.90
2023-04-25T03:11:18.540Z,99.90
2023-04-25T03:13:45.260Z,99.90
2023-04-25T03:16:12.060Z,99.90
2023-04-25T03:18:38.759Z,99.90
2023-04-25T03:23:32.703Z,99.90
2023-04-25T03:25:59.472Z,99.90
2023-04-25T03:28:26.426Z,99.90
2023-04-25T03:30:53.246Z,99.90
2023-04-25T03:33:19.986Z,99.90
2023-04-25T03:35:46.765Z,99.90
2023-04-25T03:38:13.489Z,99.90
2023-04-25T03:40:40.359Z,99.90
2023-04-25T03:45:34.189Z,99.90
2023-04-25T03:48:01.184Z,99.90
2023-04-25T03:52:55.147Z,99.90
2023-04-25T03:55:21.894Z,99.90
2023-04-25T03:57:49.659Z,99.90
2023-04-25T04:00:16.515Z,99.90
2023-04-25T04:07:41.228Z,99.90
2023-04-25T04:10:08.660Z,99.90
2023-04-25T04:12:35.563Z,99.90
2023-04-25T04:15:04.613Z,99.90
2023-04-25T04:17:31.533Z,99.90
2023-04-25T04:22:25.649Z,99.90
2023-04-25T04:24:52.719Z,99.90
2023-04-25T04:27:20.366Z,99.90
2023-04-25T04:29:47.566Z,99.90
2023-04-25T04:32:15.826Z,99.90
2023-04-25T04:34:42.671Z,99.90
2023-04-25T04:37:10.734Z,99.90
2023-04-25T04:39:38.005Z,99.90
2023-04-25T04:42:05.916Z,99.90
2023-04-25T04:44:36.317Z,99.90
2023-04-25T04:47:04.760Z,99.90
2023-04-25T04:49:31.676Z,99.90
2023-04-25T04:51:59.757Z,99.90
2023-04-25T04:54:26.841Z,99.90
2023-04-25T04:56:53.913Z,99.90
2023-04-25T04:59:20.666Z,99.90
2023-04-25T05:01:47.872Z,99.90
2023-04-25T05:04:14.767Z,99.90
2023-04-25T05:06:41.653Z,99.90
2023-04-25T05:11:35.628Z,99.90
2023-04-25T05:14:02.386Z,99.90
2023-04-25T05:18:56.430Z,99.90
2023-04-25T05:21:23.456Z,99.90
2023-04-25T05:23:50.531Z,99.90
2023-04-25T05:26:17.395Z,99.90
2023-04-25T05:28:44.266Z,99.90
2023-04-25T05:31:11.716Z,99.90
2023-04-25T05:33:38.736Z,99.90
2023-04-25T05:36:06.015Z,99.90
2023-04-25T05:38:34.667Z,99.90
2023-04-25T05:41:01.964Z,99.90
2023-04-25T05:43:28.723Z,99.90
2023-04-25T05:45:55.609Z,99.90
2023-04-25T05:50:49.630Z,99.90
2023-04-25T05:53:16.379Z,99.90
2023-04-25T05:55:43.140Z,99.90
2023-04-25T05:58:09.890Z,99.90
2023-04-25T06:00:36.604Z,99.90
2023-04-25T06:03:03.539Z,99.90
2023-04-25T06:05:30.837Z,99.90
2023-04-25T06:07:57.832Z,99.90
2023-04-25T06:10:24.542Z,99.90
2023-04-25T06:12:51.303Z,99.90
2023-04-25T06:15:28.184Z,99.90
2023-04-25T06:18:00.872Z,99.90
2023-04-25T06:22:54.916Z,99.90
2023-04-25T06:25:22.082Z,99.90
2023-04-25T06:27:48.966Z,99.90
2023-04-25T06:30:16.258Z,99.90
2023-04-25T06:32:43.144Z,99.90
2023-04-25T06:35:11.430Z,99.90
2023-04-25T06:37:38.366Z,99.90
2023-04-25T06:40:05.955Z,99.90
2023-04-25T06:42:32.741Z,99.90
2023-04-25T06:44:59.569Z,99.90
2023-04-25T06:47:26.407Z,99.90
2023-04-25T06:52:20.430Z,99.90
2023-04-25T06:54:47.300Z,99.90
2023-04-25T06:57:14.503Z,99.90
2023-04-25T06:59:41.199Z,99.90
2023-04-25T07:02:08.048Z,99.80
2023-04-25T07:04:35.175Z,99.90
2023-04-25T07:07:03.681Z,99.90
2023-04-25T07:09:31.104Z,99.40
2023-04-25T07:14:25.293Z,98.90
2023-04-25T07:16:52.128Z,98.80
2023-04-25T07:19:18.985Z,99.00
2023-04-25T07:24:13.178Z,97.70
2023-04-25T07:26:39.971Z,97.30
2023-04-25T07:29:06.732Z,96.80
2023-04-25T07:36:29.110Z,96.60
2023-04-25T07:41:23.143Z,95.80
2023-04-25T07:43:49.921Z,93.90
2023-04-25T07:58:33.388Z,92.20
2023-04-25T08:01:00.304Z,90.90
2023-04-25T08:03:27.356Z,88.80
2023-04-25T08:05:54.527Z,88.60
2023-04-25T08:10:49.376Z,89.00
2023-04-25T08:13:16.447Z,88.00
2023-04-25T08:15:43.248Z,88.60
2023-04-25T08:20:37.517Z,88.10
2023-04-25T08:23:04.222Z,88.50
2023-04-25T08:25:30.964Z,89.40
2023-04-25T08:27:58.202Z,87.50
2023-04-25T08:32:52.328Z,86.00
2023-04-25T08:37:46.322Z,85.00
2023-04-25T08:40:16.090Z,83.30
2023-04-25T08:42:43.631Z,85.80
2023-04-25T08:45:11.342Z,85.40
2023-04-25T08:47:40.946Z,85.30
2023-04-25T08:50:08.466Z,85.40
2023-04-25T08:52:44.735Z,85.80
2023-04-25T08:55:14.103Z,85.40
2023-04-25T08:57:43.824Z,86.50
2023-04-25T09:00:13.367Z,86.60
2023-04-25T09:02:41.318Z,87.10
2023-04-25T09:05:10.961Z,87.20
2023-04-25T09:07:37.847Z,87.20
2023-04-25T09:10:05.020Z,86.80
2023-04-25T09:12:32.417Z,87.30
2023-04-25T09:15:09.344Z,86.40
2023-04-25T09:17:36.430Z,84.10
2023-04-25T09:20:08.368Z,83.40
2023-04-25T09:22:36.864Z,84.20
2023-04-25T09:25:14.950Z,84.80
2023-04-25T09:27:53.046Z,85.80
2023-04-25T09:32:48.401Z,86.40
2023-04-25T09:35:27.176Z,89.00
2023-04-25T09:37:53.961Z,89.60
2023-04-25T09:42:48.036Z,90.30
2023-04-25T09:45:16.152Z,90.80
2023-04-25T09:47:45.040Z,90.10
2023-04-25T09:50:16.807Z,89.30
2023-04-25T09:52:44.058Z,89.00
2023-04-25T09:55:10.893Z,87.50
2023-04-25T09:57:41.007Z,88.80
2023-04-25T10:00:13.065Z,88.50
2023-04-25T10:05:09.404Z,84.80
2023-04-25T10:07:39.116Z,85.00
2023-04-25T10:10:07.082Z,81.00
2023-04-25T10:12:34.646Z,77.20
2023-04-25T10:15:02.458Z,76.90
2023-04-25T10:17:29.663Z,77.60
2023-04-25T10:19:57.363Z,79.20
2023-04-25T10:22:46.200Z,76.20
2023-04-25T10:25:13.906Z,77.30
2023-04-25T10:27:41.214Z,76.00
2023-04-25T10:30:17.459Z,74.50
2023-04-25T10:32:45.047Z,75.10
2023-04-25T10:38:00.947Z,76.80
2023-04-25T10:40:28.116Z,76.70
2023-04-25T10:42:56.883Z,76.70
2023-04-25T10:45:23.906Z,77.90
2023-04-25T10:52:45.615Z,77.70
2023-04-25T10:57:47.172Z,78.80
2023-04-25T11:00:19.964Z,78.00
2023-04-25T11:02:54.265Z,78.00
2023-04-25T11:05:51.030Z,80.20
2023-04-25T11:08:36.413Z,80.60
2023-04-25T11:11:03.598Z,81.00
2023-04-25T11:13:31.590Z,81.50
2023-04-25T11:16:07.168Z,82.00
2023-04-25T11:18:45.623Z,82.90
2023-04-25T11:21:12.871Z,83.60
2023-04-25T11:23:39.713Z,83.20
2023-04-25T11:26:06.654Z,83.30
2023-04-25T11:28:33.368Z,83.60
2023-04-25T11:31:00.150Z,84.40
2023-04-25T11:33:30.925Z,83.60
2023-04-25T11:35:58.048Z,82.70
2023-04-25T11:38:27.472Z,81.20
2023-04-25T11:40:56.402Z,79.90
2023-04-25T11:43:23.823Z,79.50
2023-04-25T11:45:54.175Z,77.30
2023-04-25T11:48:25.851Z,76.80
2023-04-25T11:53:20.357Z,78.30
2023-04-25T11:55:47.220Z,78.40
2023-04-25T11:58:14.846Z,79.00
2023-04-25T12:00:50.447Z,79.60
2023-04-25T12:03:19.367Z,80.60
2023-04-25T12:05:47.651Z,80.90
2023-04-25T12:08:15.683Z,79.20
2023-04-25T12:10:44.074Z,76.00
2023-04-25T12:13:25.578Z,76.00
2023-04-25T12:15:52.871Z,73.00
2023-04-25T12:18:26.756Z,73.20
2023-04-25T12:20:55.197Z,73.10
2023-04-25T12:23:29.183Z,72.60
2023-04-25T12:28:26.068Z,72.00
2023-04-25T12:31:03.185Z,74.30
2023-04-25T12:33:40.733Z,74.70
2023-04-25T12:36:12.169Z,74.50
2023-04-25T12:38:41.114Z,75.90
2023-04-25T12:41:08.479Z,75.80
2023-04-25T12:43:35.830Z,76.90
2023-04-25T12:46:02.669Z,77.00
2023-04-25T12:48:29.524Z,78.30
2023-04-25T12:53:26.951Z,79.90
2023-04-25T13:03:20.943Z,80.90
2023-04-25T13:05:47.865Z,81.70
2023-04-25T13:08:14.764Z,81.00
2023-04-25T13:10:41.615Z,81.10
2023-04-25T13:13:08.484Z,83.20
2023-04-25T13:15:35.257Z,82.30
2023-04-25T13:18:02.331Z,80.60
2023-04-25T13:20:29.117Z,78.60
2023-04-25T13:22:56.217Z,77.20
2023-04-25T13:25:23.051Z,75.40
2023-04-25T13:27:49.839Z,73.40
2023-04-25T13:30:16.791Z,74.10
2023-04-25T13:32:43.690Z,75.90
2023-04-25T13:35:12.941Z,75.40
2023-04-25T13:37:40.576Z,75.10
2023-04-25T13:42:40.591Z,75.90
2023-04-25T13:45:08.553Z,78.20
2023-04-25T13:47:36.345Z,78.20
2023-04-25T13:50:04.616Z,78.50
2023-04-25T13:52:31.713Z,76.70
2023-04-25T13:54:59.472Z,78.80
2023-04-25T13:57:26.784Z,76.30
2023-04-25T14:02:21.461Z,76.70
2023-04-25T14:04:48.332Z,78.60
2023-04-25T14:07:18.940Z,77.30
2023-04-25T14:09:45.924Z,77.80
2023-04-25T14:14:39.899Z,79.00
2023-04-25T14:17:07.815Z,80.30
2023-04-25T14:19:34.878Z,80.20
2023-04-25T14:22:01.878Z,81.50
2023-04-25T14:24:28.609Z,82.00
2023-04-25T14:29:22.711Z,80.30
2023-04-25T14:31:49.571Z,79.80
2023-04-25T14:34:16.505Z,81.00
2023-04-25T14:39:11.055Z,79.40
2023-04-25T14:41:38.502Z,78.10
2023-04-25T14:46:32.627Z,77.00
2023-04-25T14:48:59.520Z,77.80
2023-04-25T14:53:54.483Z,78.40
2023-04-25T14:56:21.419Z,79.00
2023-04-25T15:01:15.552Z,85.50
2023-04-25T15:03:43.002Z,88.20
2023-04-25T15:06:10.138Z,91.10
2023-04-25T15:08:37.188Z,93.70
2023-04-25T15:13:31.852Z,97.80
2023-04-25T15:15:58.745Z,97.60
2023-04-25T15:18:25.770Z,98.10
2023-04-25T15:20:53.997Z,95.00
2023-04-25T15:23:22.367Z,95.80
2023-04-25T15:25:52.716Z,95.80
2023-04-25T15:28:22.373Z,94.70
2023-04-25T15:30:49.624Z,93.00
2023-04-25T15:33:16.624Z,92.40
2023-04-25T15:35:43.490Z,92.80
2023-04-25T15:38:11.548Z,94.50
2023-04-25T15:40:38.630Z,92.20
2023-04-25T15:43:05.494Z,91.20
2023-04-25T15:45:33.061Z,88.10
2023-04-25T15:47:59.927Z,88.20
2023-04-25T15:50:27.090Z,87.40
2023-04-25T15:52:54.154Z,87.10
2023-04-25T15:55:21.900Z,84.60
2023-04-25T15:57:51.171Z,84.60
2023-04-25T16:00:19.385Z,84.40
2023-04-25T16:02:48.309Z,85.30
2023-04-25T16:05:15.836Z,85.30
2023-04-25T16:07:44.308Z,86.30
2023-04-25T16:10:12.219Z,87.10
2023-04-25T16:12:42.088Z,86.90
2023-04-25T16:15:09.292Z,88.10
2023-04-25T16:17:36.165Z,86.30
2023-04-25T16:20:09.450Z,85.30
2023-04-25T16:22:38.192Z,86.00
2023-04-25T16:25:05.813Z,86.50
2023-04-25T16:27:34.662Z,86.30
2023-04-25T16:30:02.259Z,86.90
2023-04-25T16:32:29.048Z,87.50
2023-04-25T16:34:58.117Z,87.30
2023-04-25T16:37:25.723Z,87.00
2023-04-25T16:39:52.636Z,87.60
2023-04-25T16:47:17.959Z,87.30
2023-04-25T16:49:46.397Z,87.60
2023-04-25T16:52:13.277Z,86.40
2023-04-25T16:54:40.038Z,87.20
2023-04-25T16:57:10.426Z,86.70
2023-04-25T16:59:41.460Z,86.00
2023-04-25T17:02:12.803Z,86.20
2023-04-25T17:04:40.728Z,87.50
2023-04-25T17:07:08.556Z,86.90
2023-04-25T17:09:35.755Z,86.90
2023-04-25T17:12:03.765Z,87.20
2023-04-25T17:14:32.970Z,87.00
2023-04-25T17:16:59.877Z,85.90
2023-04-25T17:19:27.430Z,86.70
2023-04-25T17:21:54.361Z,86.50
2023-04-25T17:24:21.956Z,86.90
2023-04-25T17:26:49.109Z,87.00
2023-04-25T17:29:16.091Z,86.70
2023-04-25T17:31:44.073Z,87.30
2023-04-25T17:34:12.189Z,87.30
2023-04-25T17:36:38.874Z,87.50
2023-04-25T17:39:07.345Z,87.30
2023-04-25T17:41:34.100Z,87.60
2023-04-25T17:44:00.946Z,87.90
2023-04-25T17:46:29.507Z,86.40
2023-04-25T17:48:58.197Z,86.10
2023-04-25T17:51:25.092Z,86.60
2023-04-25T17:53:52.015Z,86.50
2023-04-25T17:56:26.762Z,86.60
2023-04-25T17:58:54.595Z,86.90
2023-04-25T18:01:21.887Z,87.00
2023-04-25T18:03:49.913Z,87.40
2023-04-25T18:06:17.900Z,87.20
2023-04-25T18:11:12.401Z,88.40
2023-04-25T18:13:39.613Z,88.60
2023-04-25T18:16:07.103Z,88.80
2023-04-25T18:18:36.095Z,89.20
2023-04-25T18:23:34.068Z,89.90
2023-04-25T18:26:04.371Z,89.70
2023-04-25T18:28:31.242Z,89.30
2023-04-25T18:30:58.055Z,89.20
2023-04-25T18:33:25.287Z,89.40
2023-04-25T18:38:34.849Z,90.40
2023-04-25T18:41:13.087Z,90.20
2023-04-25T18:43:47.854Z,90.70
2023-04-25T18:46:14.659Z,90.50
2023-04-25T18:48:41.587Z,90.80
2023-04-25T18:51:08.933Z,91.10
2023-04-25T18:53:37.381Z,91.40
2023-04-25T18:56:04.713Z,91.20
2023-04-25T19:01:00.094Z,91.90
2023-04-25T19:03:27.707Z,91.50
2023-04-25T19:05:54.562Z,91.90
2023-04-25T19:08:21.667Z,91.80
2023-04-25T19:10:50.414Z,91.80
2023-04-25T19:13:17.213Z,91.80
2023-04-25T19:15:43.979Z,92.00
2023-04-25T19:18:10.884Z,92.10
2023-04-25T19:20:37.894Z,92.30
2023-04-25T19:23:05.428Z,92.50
2023-04-25T19:25:32.531Z,92.70
2023-04-25T19:28:00.645Z,93.00
2023-04-25T19:30:29.346Z,92.90
2023-04-25T19:32:59.072Z,93.40
2023-04-25T19:35:30.787Z,93.10
2023-04-25T19:37:57.669Z,93.20
2023-04-25T19:40:25.336Z,93.70
2023-04-25T19:42:52.151Z,93.70
2023-04-25T19:45:19.040Z,94.30
2023-04-25T19:47:45.858Z,94.50
2023-04-25T19:50:12.927Z,94.50
2023-04-25T19:52:40.155Z,94.80
2023-04-25T19:55:07.653Z,95.00
2023-04-25T19:57:37.694Z,95.00
2023-04-25T20:00:08.998Z,95.40
2023-04-25T20:02:36.858Z,95.50
2023-04-25T20:05:06.182Z,96.10
2023-04-25T20:07:33.223Z,96.00
2023-04-25T20:10:04.070Z,95.80
2023-04-25T20:12:30.895Z,95.70
2023-04-25T20:14:58.478Z,96.00
2023-04-25T20:17:25.884Z,96.00
2023-04-25T20:19:52.966Z,96.30
2023-04-25T20:22:19.793Z,96.20
2023-04-25T20:24:46.634Z,96.00
2023-04-25T20:29:42.152Z,96.20
2023-04-25T20:32:09.760Z,96.60
2023-04-25T20:34:37.231Z,96.90
2023-04-25T20:39:33.203Z,97.30
2023-04-25T20:42:00.138Z,97.60
2023-04-25T20:44:27.027Z,97.50
2023-04-25T20:46:53.919Z,97.60
2023-04-25T20:49:20.861Z,97.60
2023-04-25T20:51:47.762Z,97.90
2023-04-25T20:54:14.620Z,98.00
2023-04-25T20:56:41.450Z,98.10
2023-04-25T20:59:09.122Z,98.20
2023-04-25T21:01:36.063Z,98.40
2023-04-25T21:04:03.170Z,98.40
2023-04-25T21:06:30.193Z,98.40
2023-04-25T21:08:56.936Z,98.40
2023-04-25T21:11:23.787Z,98.50
2023-04-25T21:13:51.306Z,98.60
2023-04-25T21:16:18.313Z,98.70
2023-04-25T21:18:45.127Z,99.00
2023-04-25T21:21:11.892Z,99.20
2023-04-25T21:23:38.727Z,99.40
2023-04-25T21:26:06.127Z,99.90
2023-04-25T21:28:32.934Z,99.90
2023-04-25T21:30:59.724Z,99.90
2023-04-25T21:33:26.535Z,99.90
2023-04-25T21:35:53.287Z,99.90
2023-04-25T21:38:20.104Z,99.90
2023-04-25T21:40:46.965Z,99.90
2023-04-25T21:43:13.878Z,99.90
2023-04-25T21:46:05.618Z,99.90
2023-04-25T21:48:28.264Z,99.90
2023-04-25T21:50:56.122Z,99.90
2023-04-25T21:53:23.012Z,99.90
2023-04-25T21:55:49.721Z,99.90
2023-04-25T22:00:44.362Z,99.90
2023-04-25T22:05:38.573Z,99.90
2023-04-25T22:08:05.321Z,99.90
2023-04-25T22:12:59.440Z,99.90
2023-04-25T22:17:56.326Z,99.90
2023-04-25T22:20:26.512Z,99.90
2023-04-25T22:22:54.602Z,99.90
2023-04-25T22:27:49.432Z,99.90
2023-04-25T22:32:43.942Z,99.90
2023-04-25T22:35:12.043Z,99.80
2023-04-25T22:37:39.109Z,99.70
2023-04-25T22:40:09.356Z,99.90
2023-04-25T22:42:39.855Z,99.90
2023-04-25T22:45:08.478Z,99.90
2023-04-25T22:47:39.266Z,99.90
2023-04-25T22:50:08.344Z,99.90
2023-04-25T22:52:35.396Z,99.90
2023-04-25T22:55:05.386Z,99.90
2023-04-25T22:57:33.036Z,99.90
2023-04-25T22:59:59.857Z,99.90
2023-04-25T23:02:27.608Z,99.90
2023-04-25T23:04:55.052Z,99.90
2023-04-25T23:07:22.065Z,99.90
2023-04-25T23:09:49.332Z,99.90
2023-04-25T23:12:19.311Z,99.90
2023-04-25T23:14:50.971Z,99.90
2023-04-25T23:17:17.694Z,99.90
2023-04-25T23:19:45.226Z,99.90
2023-04-25T23:22:12.465Z,99.90
2023-04-25T23:27:07.584Z,99.90
2023-04-25T23:32:01.740Z,99.90
2023-04-25T23:34:32.516Z,99.90
2023-04-25T23:37:01.438Z,99.90
2023-04-25T23:39:28.873Z,99.90
2023-04-25T23:41:55.881Z,99.90
2023-04-25T23:44:22.727Z,99.90
2023-04-25T23:46:50.354Z,99.90
2023-04-25T23:49:17.132Z,99.90
2023-04-25T23:54:11.225Z,99.90
2023-04-25T23:56:37.942Z,99.90
2023-04-25T23:59:04.888Z,99.90
